Time;durP1;ratioP1;P1;durP2;ratioP2;P2;SDS_P1;SDS_P2;PMS_P1;PMS_P2;Temp;Humidity;BMP_temperature;BMP_pressure;BME280_temperature;BME280_humidity;BME280_pressure;Samples;Min_cycle;Max_cycle;Signal;HPM_P1;HPM_P2
2021/12/17 00:04:36;;;;;;;40.55;9.27;;;7.30;99.90;;;;;;5029161;28;20117;-81
2021/12/17 00:07:04;;;;;;;41.72;9.55;;;7.40;99.90;;;;;;5012927;28;20036;-81
2021/12/17 00:09:30;;;;;;;33.67;8.90;;;7.40;99.90;;;;;;5066731;28;20044;-82
2021/12/17 00:11:55;;;;;;;36.08;8.98;;;7.40;99.90;;;;;;5049571;28;20029;-81
2021/12/17 00:14:29;;;;;;;39.08;7.88;;;7.40;99.90;;;;;;5066793;28;20053;-81
2021/12/17 00:17:01;;;;;;;39.25;10.45;;;7.40;99.90;;;;;;5049930;28;20052;-81
2021/12/17 00:19:53;;;;;;;47.38;11.23;;;7.30;99.90;;;;;;5049865;28;20068;-81
2021/12/17 00:49:59;;;;;;;35.17;9.35;;;7.20;99.90;;;;;;5106316;28;20035;-81
2021/12/17 00:52:28;;;;;;;44.97;11.75;;;7.10;99.90;;;;;;5106682;28;20475;-80
2021/12/17 00:54:54;;;;;;;40.47;10.10;;;7.10;99.90;;;;;;5089488;28;20035;-81
2021/12/17 00:57:28;;;;;;;39.28;10.43;;;7.20;99.90;;;;;;5106396;28;20105;-81
2021/12/17 00:59:56;;;;;;;39.00;8.82;;;7.20;99.90;;;;;;5089256;28;20024;-81
2021/12/17 01:02:25;;;;;;;39.67;10.52;;;7.20;99.90;;;;;;5106512;28;20111;-81
2021/12/17 01:04:55;;;;;;;46.20;9.77;;;7.20;99.90;;;;;;5089348;28;20024;-81
2021/12/17 01:07:23;;;;;;;36.83;9.05;;;7.20;99.90;;;;;;5107767;28;20169;-81
2021/12/17 01:09:51;;;;;;;42.83;9.80;;;7.20;99.90;;;;;;5106024;28;20032;-81
2021/12/17 01:12:18;;;;;;;37.58;9.77;;;7.20;99.90;;;;;;5106116;28;20035;-81
2021/12/17 01:15:08;;;;;;;50.00;11.50;;;7.20;99.90;;;;;;5106353;28;20039;-81
2021/12/17 01:17:51;;;;;;;40.17;9.43;;;7.10;99.90;;;;;;5090464;28;20036;-80
2021/12/17 01:23:48;;;;;;;47.33;10.73;;;7.10;99.90;;;;;;5104888;28;20088;-81
2021/12/17 01:35:26;;;;;;;47.03;10.85;;;7.10;99.90;;;;;;5105304;28;20496;-81
2021/12/17 01:41:05;;;;;;;46.08;12.88;;;7.00;99.90;;;;;;5105525;28;20024;-81
2021/12/17 01:43:36;;;;;;;52.22;12.73;;;7.00;99.90;;;;;;5105172;28;20048;-80
2021/12/17 01:46:05;;;;;;;50.30;13.32;;;7.00;99.90;;;;;;5105354;28;20039;-81
2021/12/17 01:48:39;;;;;;;45.85;11.73;;;7.00;99.90;;;;;;5088395;28;20115;-81
2021/12/17 01:56:54;;;;;;;29.58;7.85;;;7.00;99.90;;;;;;5104963;28;20047;-80
2021/12/17 02:01:47;;;;;;;41.80;9.98;;;7.00;99.90;;;;;;5105016;28;20100;-81
2021/12/17 02:04:12;;;;;;;30.55;7.55;;;7.00;99.90;;;;;;5088186;28;20028;-81
2021/12/17 02:06:39;;;;;;;33.60;8.23;;;7.10;99.90;;;;;;5104709;28;20050;-81
2021/12/17 02:20:28;;;;;;;36.38;7.18;;;7.10;99.90;;;;;;5104865;28;20181;-81
2021/12/17 02:29:21;;;;;;;25.40;5.35;;;7.10;99.90;;;;;;5104572;28;20024;-80
2021/12/17 02:31:23;;;;;;;25.90;6.05;;;7.10;99.90;;;;;;5082803;28;20040;-81
2021/12/17 02:33:49;;;;;;;27.15;5.47;;;7.10;99.90;;;;;;5104315;28;20098;-81
2021/12/17 02:36:19;;;;;;;22.85;5.13;;;7.10;99.90;;;;;;5104242;28;20104;-81
2021/12/17 02:38:44;;;;;;;31.40;6.90;;;7.10;99.90;;;;;;5104540;28;20043;-80
2021/12/17 02:47:03;;;;;;;28.05;6.55;;;7.10;99.90;;;;;;5104536;28;20052;-81
2021/12/17 02:49:30;;;;;;;23.42;4.93;;;7.10;99.90;;;;;;5087466;28;20039;-81
2021/12/17 02:51:57;;;;;;;23.88;5.45;;;7.10;99.90;;;;;;5087489;28;20052;-80
2021/12/17 02:54:24;;;;;;;25.98;5.00;;;7.10;99.90;;;;;;5087469;28;20059;-81
2021/12/17 02:56:50;;;;;;;22.70;5.10;;;7.10;99.90;;;;;;5104207;28;20040;-81
2021/12/17 02:59:16;;;;;;;27.83;6.25;;;7.10;99.90;;;;;;5087266;28;20028;-80
2021/12/17 03:01:45;;;;;;;24.50;5.35;;;7.10;99.90;;;;;;5087410;28;20031;-81
2021/12/17 03:04:13;;;;;;;23.63;4.32;;;7.20;99.90;;;;;;5087591;28;20027;-81
2021/12/17 03:06:41;;;;;;;25.80;5.05;;;7.20;99.90;;;;;;5087249;28;20032;-81
2021/12/17 03:09:07;;;;;;;27.17;5.63;;;7.20;99.90;;;;;;5087226;28;20028;-81
2021/12/17 03:11:32;;;;;;;28.35;5.53;;;7.20;99.90;;;;;;5104213;28;20036;-80
2021/12/17 03:13:58;;;;;;;30.05;6.07;;;7.20;99.90;;;;;;5087371;28;20032;-81
2021/12/17 03:16:33;;;;;;;28.35;6.20;;;7.20;99.90;;;;;;5104071;28;20496;-81
2021/12/17 03:19:26;;;;;;;29.67;5.90;;;7.20;99.90;;;;;;5087184;28;20372;-81
2021/12/17 03:24:36;;;;;;;25.92;5.85;;;7.20;99.90;;;;;;5104240;28;20020;-81
2021/12/17 03:27:04;;;;;;;27.08;5.40;;;7.20;99.90;;;;;;5087105;28;20138;-81
2021/12/17 03:29:30;;;;;;;28.85;5.97;;;7.20;99.90;;;;;;5084893;22;20037;-80
2021/12/17 03:32:01;;;;;;;27.35;6.10;;;7.20;99.90;;;;;;5008001;28;20056;-80
2021/12/17 03:34:27;;;;;;;28.98;5.50;;;7.20;99.90;;;;;;5008061;28;20079;-81
2021/12/17 03:36:56;;;;;;;27.48;6.28;;;7.20;99.90;;;;;;5007944;28;20041;-80
2021/12/17 03:39:24;;;;;;;28.42;5.72;;;7.20;99.90;;;;;;5024053;28;20441;-80
2021/12/17 03:41:52;;;;;;;29.75;6.70;;;7.20;99.90;;;;;;5007932;28;20088;-81
2021/12/17 03:44:29;;;;;;;28.13;6.43;;;7.20;99.90;;;;;;5025566;28;20037;-81
2021/12/17 03:47:04;;;;;;;33.45;7.45;;;7.20;99.90;;;;;;5010845;28;20041;-80
2021/12/17 03:49:43;;;;;;;31.73;7.15;;;7.20;99.90;;;;;;5011533;28;20045;-81
2021/12/17 03:52:10;;;;;;;25.13;6.38;;;7.20;99.90;;;;;;5011392;28;20157;-80
2021/12/17 03:54:39;;;;;;;25.27;5.25;;;7.20;99.90;;;;;;5011258;28;20037;-81
2021/12/17 03:57:09;;;;;;;24.42;5.55;;;7.20;99.90;;;;;;5011205;28;20038;-81
2021/12/17 03:59:37;;;;;;;33.00;6.53;;;7.20;99.90;;;;;;5011006;28;20029;-80
2021/12/17 04:02:04;;;;;;;27.15;5.57;;;7.20;99.90;;;;;;5011118;28;20101;-81
2021/12/17 04:04:30;;;;;;;26.05;6.10;;;7.20;99.90;;;;;;5011063;28;20026;-80
2021/12/17 04:07:29;;;;;;;24.05;5.28;;;7.20;99.90;;;;;;4993565;28;20667;-81
2021/12/17 04:10:13;;;;;;;28.48;5.47;;;7.20;99.90;;;;;;5010742;28;20121;-80
2021/12/17 04:12:56;;;;;;;28.25;5.70;;;7.30;99.90;;;;;;5010762;28;20508;-80
2021/12/17 04:15:34;;;;;;;26.70;5.15;;;7.20;99.90;;;;;;5026919;28;20036;-80
2021/12/17 04:18:00;;;;;;;26.45;4.80;;;7.20;99.90;;;;;;5010396;28;20065;-80
2021/12/17 04:20:27;;;;;;;27.08;4.85;;;7.20;99.90;;;;;;5010600;28;20030;-80
2021/12/17 04:22:52;;;;;;;25.50;4.70;;;7.30;99.90;;;;;;5010579;28;20034;-81
2021/12/17 04:25:18;;;;;;;30.70;5.88;;;7.30;99.90;;;;;;5010462;28;20042;-80
2021/12/17 04:27:44;;;;;;;27.17;5.45;;;7.30;99.90;;;;;;4994040;28;20036;-80
2021/12/17 04:30:11;;;;;;;24.80;4.45;;;7.30;99.90;;;;;;5010143;28;20042;-81
2021/12/17 04:32:36;;;;;;;24.52;5.00;;;7.30;99.90;;;;;;5010279;28;20038;-81
2021/12/17 04:35:03;;;;;;;20.55;5.32;;;7.30;99.90;;;;;;5026605;28;20081;-81
2021/12/17 04:37:36;;;;;;;23.55;4.72;;;7.30;99.90;;;;;;5009995;28;20633;-81
2021/12/17 04:40:03;;;;;;;28.33;5.70;;;7.30;99.90;;;;;;5009923;28;20050;-80
2021/12/17 04:45:14;;;;;;;25.30;5.72;;;7.30;99.90;;;;;;5010232;28;20022;-81
2021/12/17 04:59:00;;;;;;;27.42;5.03;;;7.30;99.90;;;;;;5009425;28;20030;-80
2021/12/17 05:01:27;;;;;;;21.90;4.78;;;7.30;99.90;;;;;;5026119;28;20041;-81
2021/12/17 05:03:52;;;;;;;25.10;4.32;;;7.30;99.90;;;;;;5009748;28;20034;-80
2021/12/17 05:06:19;;;;;;;21.63;5.22;;;7.40;99.90;;;;;;5009679;28;20038;-81
2021/12/17 05:08:58;;;;;;;20.85;5.07;;;7.30;99.90;;;;;;5009419;28;20117;-80
2021/12/17 05:18:13;;;;;;;21.88;4.35;;;7.40;99.90;;;;;;5009550;28;20094;-81
2021/12/17 05:19:49;;;;;;;20.67;4.85;;;7.40;99.90;;;;;;5010865;28;20052;-79
2021/12/17 05:22:15;;;;;;;21.35;4.55;;;7.30;99.90;;;;;;4993248;28;20090;-81
2021/12/17 05:24:41;;;;;;;23.90;4.78;;;7.40;99.90;;;;;;5009438;28;20040;-81
2021/12/17 05:27:07;;;;;;;21.48;4.78;;;7.40;99.90;;;;;;5009149;28;20025;-81
2021/12/17 05:29:41;;;;;;;27.13;4.72;;;7.40;99.90;;;;;;5008864;28;20034;-81
2021/12/17 05:32:07;;;;;;;21.85;4.93;;;7.40;99.90;;;;;;5009209;28;20057;-81
2021/12/17 05:34:33;;;;;;;24.17;4.45;;;7.40;99.90;;;;;;5009255;28;20056;-81
2021/12/17 05:37:05;;;;;;;19.75;4.35;;;7.40;99.90;;;;;;5009060;28;20045;-81
2021/12/17 05:39:31;;;;;;;22.83;3.63;;;7.40;99.90;;;;;;5008775;28;20029;-81
2021/12/17 05:42:00;;;;;;;21.25;5.07;;;7.40;99.90;;;;;;4992589;28;20544;-80
2021/12/17 05:44:40;;;;;;;22.98;4.70;;;7.40;99.90;;;;;;4994321;28;20544;-80
2021/12/17 05:47:07;;;;;;;19.27;4.45;;;7.40;99.90;;;;;;5008732;28;20050;-80
2021/12/17 05:49:33;;;;;;;24.08;4.75;;;7.40;99.90;;;;;;4992533;28;20040;-81
2021/12/17 05:52:02;;;;;;;20.23;4.45;;;7.40;99.90;;;;;;4993195;28;20029;-81
2021/12/17 05:54:29;;;;;;;22.90;4.45;;;7.40;99.90;;;;;;4992788;28;20030;-81
2021/12/17 05:56:55;;;;;;;22.20;4.97;;;7.40;99.90;;;;;;5008436;28;20037;-80
2021/12/17 05:59:23;;;;;;;23.83;4.75;;;7.40;99.90;;;;;;4992469;28;20123;-80
2021/12/17 06:01:49;;;;;;;19.15;4.05;;;7.40;99.90;;;;;;4992480;28;20034;-80
2021/12/17 06:04:15;;;;;;;24.60;5.47;;;7.40;99.90;;;;;;4992334;28;20030;-80
2021/12/17 06:06:58;;;;;;;24.58;5.80;;;7.40;99.90;;;;;;4994706;28;20043;-81
2021/12/17 06:09:24;;;;;;;24.58;5.40;;;7.40;99.90;;;;;;4991913;28;20025;-81
2021/12/17 06:11:50;;;;;;;23.52;4.65;;;7.40;99.90;;;;;;4992338;28;20212;-80
2021/12/17 06:14:18;;;;;;;24.42;5.05;;;7.40;99.90;;;;;;4992443;28;20450;-81
2021/12/17 06:16:43;;;;;;;24.45;5.82;;;7.40;99.90;;;;;;4992291;28;20065;-81
2021/12/17 06:19:17;;;;;;;22.85;4.95;;;7.50;99.90;;;;;;4992552;28;20030;-81
2021/12/17 06:21:44;;;;;;;27.38;5.78;;;7.40;99.90;;;;;;4992241;28;20081;-81
2021/12/17 06:24:10;;;;;;;26.88;6.38;;;7.50;99.90;;;;;;4992066;28;20034;-80
2021/12/17 06:26:36;;;;;;;22.33;5.40;;;7.50;99.90;;;;;;4992101;28;20029;-81
2021/12/17 06:29:04;;;;;;;26.40;5.72;;;7.50;99.90;;;;;;5007967;28;20037;-80
2021/12/17 06:31:30;;;;;;;26.02;5.05;;;7.50;99.90;;;;;;4988586;28;20046;-80
2021/12/17 06:33:56;;;;;;;28.25;6.00;;;7.50;99.90;;;;;;4988849;28;20038;-81
2021/12/17 06:36:24;;;;;;;25.55;5.55;;;7.50;99.90;;;;;;5004689;28;20030;-83
2021/12/17 06:38:51;;;;;;;22.38;5.07;;;7.50;99.90;;;;;;4985901;28;20035;-82
2021/12/17 06:41:18;;;;;;;25.40;6.00;;;7.50;99.90;;;;;;5004795;28;20148;-83
2021/12/17 06:43:44;;;;;;;25.02;5.43;;;7.50;99.90;;;;;;5004943;28;20022;-83
2021/12/17 06:46:24;;;;;;;26.33;5.72;;;7.50;99.90;;;;;;4988863;28;20026;-83
2021/12/17 06:49:08;;;;;;;22.88;5.45;;;7.50;99.90;;;;;;4988639;28;20034;-83
2021/12/17 07:07:05;;;;;;;24.20;5.53;;;7.50;99.90;;;;;;5006075;28;20135;-82
2021/12/17 07:10:13;;;;;;;21.67;4.97;;;7.50;99.90;;;;;;5004734;28;20034;-82
2021/12/17 07:18:26;;;;;;;29.30;5.90;;;7.50;99.90;;;;;;5004658;28;20038;-83
2021/12/17 07:23:21;;;;;;;25.77;5.65;;;7.50;99.90;;;;;;5008153;28;20126;-83
2021/12/17 07:39:41;;;;;;;21.33;4.93;;;7.50;99.90;;;;;;5005110;28;20155;-82
2021/12/17 07:42:28;;;;;;;25.33;5.18;;;7.40;99.90;;;;;;5002150;28;20045;-82
2021/12/17 07:44:54;;;;;;;20.90;4.50;;;7.40;99.90;;;;;;5005197;28;20034;-82
2021/12/17 07:47:31;;;;;;;26.05;5.85;;;7.50;99.90;;;;;;5004828;28;20098;-82
2021/12/17 07:50:15;;;;;;;15.10;3.97;;;7.50;99.90;;;;;;5002689;28;20070;-81
2021/12/17 07:53:20;;;;;;;14.63;3.50;;;7.50;99.90;;;;;;4988038;28;20098;-82
2021/12/17 07:56:01;;;;;;;16.07;3.83;;;7.50;99.90;;;;;;4988510;28;20089;-82
2021/12/17 07:58:31;;;;;;;15.88;4.03;;;7.50;99.90;;;;;;4988329;28;20031;-82
2021/12/17 08:00:57;;;;;;;13.82;2.28;;;7.50;99.90;;;;;;4988517;28;20027;-82
2021/12/17 08:03:23;;;;;;;14.18;2.97;;;7.50;99.90;;;;;;4988357;28;20035;-83
2021/12/17 08:05:53;;;;;;;12.30;2.22;;;7.50;99.90;;;;;;4988018;28;20039;-82
2021/12/17 08:08:20;;;;;;;11.50;1.63;;;7.50;99.90;;;;;;4987712;28;20023;-83
2021/12/17 08:10:56;;;;;;;8.40;1.95;;;7.50;99.90;;;;;;4987971;28;20090;-82
2021/12/17 08:13:26;;;;;;;10.38;2.42;;;7.50;99.90;;;;;;4988051;28;20030;-82
2021/12/17 08:16:18;;;;;;;11.65;2.65;;;7.50;99.90;;;;;;4988105;28;20035;-82
2021/12/17 08:18:56;;;;;;;10.35;2.22;;;7.60;99.90;;;;;;4988054;28;20479;-82
2021/12/17 08:29:42;;;;;;;11.23;2.72;;;7.60;99.90;;;;;;5002665;28;20035;-83
2021/12/17 08:32:08;;;;;;;10.40;2.72;;;7.60;99.90;;;;;;4986394;28;20125;-82
2021/12/17 08:34:50;;;;;;;11.68;2.65;;;7.60;99.90;;;;;;4986980;28;20085;-82
2021/12/17 08:37:17;;;;;;;14.93;3.85;;;7.60;99.90;;;;;;4986328;28;20403;-83
2021/12/17 08:39:46;;;;;;;12.05;3.28;;;7.60;99.90;;;;;;4987383;28;20399;-83
2021/12/17 08:42:26;;;;;;;13.90;3.23;;;7.60;99.90;;;;;;4986791;28;20075;-83
2021/12/17 08:44:52;;;;;;;12.68;3.17;;;7.60;99.90;;;;;;5003082;28;20627;-82
2021/12/17 08:47:40;;;;;;;10.90;2.75;;;7.60;99.90;;;;;;5000109;28;20117;-82
2021/12/17 08:50:08;;;;;;;9.75;2.05;;;7.60;99.90;;;;;;5002828;28;20023;-83
2021/12/17 08:52:34;;;;;;;10.25;2.88;;;7.60;99.90;;;;;;4986242;28;20037;-83
2021/12/17 08:55:00;;;;;;;10.05;1.73;;;7.60;99.90;;;;;;4986453;28;20093;-83
2021/12/17 08:57:26;;;;;;;18.05;3.90;;;7.70;99.90;;;;;;4986286;28;20051;-83
2021/12/17 08:59:56;;;;;;;8.95;1.98;;;7.60;99.90;;;;;;4986338;28;20115;-83
2021/12/17 09:02:27;;;;;;;12.40;2.30;;;7.60;99.90;;;;;;5002067;28;20026;-83
2021/12/17 09:05:07;;;;;;;7.32;2.08;;;7.70;99.90;;;;;;5002821;28;20042;-82
2021/12/17 09:07:34;;;;;;;10.77;2.15;;;7.60;99.90;;;;;;5001640;28;20027;-84
2021/12/17 09:10:23;;;;;;;9.60;1.98;;;7.70;99.90;;;;;;4999692;28;20045;-85
2021/12/17 09:12:49;;;;;;;9.88;1.92;;;7.80;99.90;;;;;;4986642;28;20051;-85
2021/12/17 09:15:15;;;;;;;12.82;2.50;;;7.70;99.90;;;;;;4987765;28;20038;-87
2021/12/17 09:18:10;;;;;;;10.05;1.95;;;7.80;99.90;;;;;;4992350;28;20050;-85
2021/12/17 09:20:46;;;;;;;8.25;1.67;;;7.80;99.90;;;;;;4986525;28;20031;-84
2021/12/17 09:23:12;;;;;;;5.95;1.30;;;7.80;99.90;;;;;;4986282;28;20030;-84
2021/12/17 09:25:39;;;;;;;8.43;1.45;;;7.80;99.90;;;;;;4986344;28;20238;-84
2021/12/17 09:28:09;;;;;;;;;;;7.80;99.90;;;;;;4986545;28;20022;-84
2021/12/17 09:31:11;;;;;;;7.05;1.50;;;7.80;99.90;;;;;;5079224;22;19924;-84
2021/12/17 09:33:40;;;;;;;6.30;2.03;;;7.70;99.90;;;;;;5046470;28;20120;-83
2021/12/17 09:36:06;;;;;;;5.13;1.33;;;7.80;99.90;;;;;;5045575;28;20049;-87
2021/12/17 09:38:32;;;;;;;6.13;1.20;;;7.80;99.90;;;;;;5045163;28;20038;-85
2021/12/17 09:40:58;;;;;;;4.75;0.70;;;7.90;99.90;;;;;;5045630;28;20513;-86
2021/12/17 09:43:29;;;;;;;7.03;1.48;;;7.80;99.90;;;;;;5028909;28;20053;-87
2021/12/17 09:45:57;;;;;;;6.32;1.30;;;7.90;99.90;;;;;;5045375;28;20074;-87
2021/12/17 09:48:23;;;;;;;8.05;1.20;;;7.90;99.90;;;;;;5028777;28;20063;-84
2021/12/17 09:50:49;;;;;;;7.68;1.40;;;8.00;99.90;;;;;;5045150;28;20116;-84
2021/12/17 09:53:15;;;;;;;6.70;0.90;;;8.00;99.90;;;;;;5028518;28;20151;-84
2021/12/17 09:55:41;;;;;;;5.78;0.80;;;8.00;99.90;;;;;;5028467;28;20033;-84
2021/12/17 09:58:06;;;;;;;7.47;1.88;;;8.00;99.90;;;;;;5028335;28;20065;-84
2021/12/17 10:00:32;;;;;;;7.15;1.88;;;8.00;99.90;;;;;;5045036;28;20033;-84
2021/12/17 10:02:57;;;;;;;7.28;2.22;;;8.00;99.90;;;;;;5044792;28;20064;-84
2021/12/17 10:05:28;;;;;;;8.38;2.05;;;8.00;99.90;;;;;;5028142;28;20087;-83
2021/12/17 10:07:58;;;;;;;8.98;1.73;;;8.00;99.90;;;;;;5027654;28;20060;-85
2021/12/17 10:10:40;;;;;;;;;;;8.10;99.90;;;;;;5028717;28;20026;-84
2021/12/17 10:13:11;;;;;;;5.93;1.17;;;8.10;99.90;;;;;;5044400;28;19936;-84
2021/12/17 10:15:40;;;;;;;6.00;1.52;;;8.20;99.90;;;;;;5027967;28;20084;-85
2021/12/17 10:18:06;;;;;;;4.88;1.33;;;8.20;99.90;;;;;;5044323;28;20037;-85
2021/12/17 10:20:34;;;;;;;6.25;1.38;;;8.20;99.90;;;;;;5027855;28;20022;-84
2021/12/17 10:23:00;;;;;;;5.57;0.90;;;8.20;99.90;;;;;;5027859;28;20056;-85
2021/12/17 10:25:28;;;;;;;4.85;1.30;;;8.30;99.90;;;;;;5027925;28;20025;-84
2021/12/17 10:27:59;;;;;;;6.90;1.63;;;8.30;99.90;;;;;;5027774;28;20037;-84
2021/12/17 10:30:27;;;;;;;6.57;1.35;;;8.30;99.90;;;;;;5030092;28;20087;-84
2021/12/17 10:32:57;;;;;;;6.88;1.27;;;8.30;99.90;;;;;;5047251;28;20029;-84
2021/12/17 10:35:32;;;;;;;8.05;1.45;;;8.20;99.90;;;;;;5031115;28;20089;-85
2021/12/17 10:38:10;;;;;;;5.65;1.50;;;8.30;99.90;;;;;;5029558;28;20057;-85
2021/12/17 10:41:04;;;;;;;3.72;1.08;;;8.20;99.90;;;;;;5027705;28;20506;-85
2021/12/17 10:43:36;;;;;;;3.72;0.88;;;8.30;99.90;;;;;;5047438;28;20127;-85
2021/12/17 10:46:06;;;;;;;4.30;0.73;;;8.40;99.90;;;;;;5047422;28;20056;-85
2021/12/17 10:51:19;;;;;;;5.45;1.25;;;8.30;99.90;;;;;;5047238;28;20036;-85
2021/12/17 10:53:55;;;;;;;4.28;1.33;;;8.30;99.90;;;;;;5027891;28;20029;-85
2021/12/17 10:56:24;;;;;;;3.95;0.77;;;8.30;99.90;;;;;;5049785;28;20052;-85
2021/12/17 10:59:09;;;;;;;3.33;0.73;;;8.30;99.90;;;;;;5051060;28;20060;-85
2021/12/17 11:01:41;;;;;;;3.80;0.55;;;8.30;99.90;;;;;;5031467;28;20043;-84
2021/12/17 11:04:12;;;;;;;4.53;0.70;;;8.30;99.90;;;;;;5051034;28;20032;-85
2021/12/17 11:07:01;;;;;;;3.58;0.68;;;8.30;99.90;;;;;;5051102;28;20029;-84
2021/12/17 11:09:32;;;;;;;2.25;0.50;;;8.40;99.90;;;;;;5034544;28;20067;-85
2021/12/17 11:12:01;;;;;;;1.65;0.40;;;8.40;99.90;;;;;;5051205;28;20033;-84
2021/12/17 11:14:28;;;;;;;3.17;0.52;;;8.40;99.90;;;;;;5051949;28;20021;-84
2021/12/17 11:16:54;;;;;;;2.55;0.50;;;8.40;99.90;;;;;;5034115;28;20476;-84
2021/12/17 11:19:20;;;;;;;1.83;0.40;;;8.40;99.90;;;;;;5034039;28;20539;-84
2021/12/17 11:21:47;;;;;;;3.05;0.93;;;8.50;99.90;;;;;;5050592;28;20045;-84
2021/12/17 11:24:13;;;;;;;1.85;0.30;;;8.50;99.90;;;;;;5050527;28;20017;-84
2021/12/17 11:26:40;;;;;;;2.20;0.55;;;8.50;99.90;;;;;;5034205;28;20124;-84
2021/12/17 11:29:07;;;;;;;1.80;0.40;;;8.60;99.90;;;;;;5050453;28;20373;-84
2021/12/17 11:31:33;;;;;;;2.22;0.43;;;8.60;99.90;;;;;;5033768;28;20056;-85
2021/12/17 11:34:01;;;;;;;2.10;0.50;;;8.60;99.90;;;;;;5050307;28;20033;-84
2021/12/17 11:36:28;;;;;;;2.38;0.40;;;8.60;99.90;;;;;;5050172;28;20099;-83
2021/12/17 11:39:16;;;;;;;2.63;0.60;;;8.60;99.90;;;;;;5048597;28;20025;-83
2021/12/17 11:41:51;;;;;;;2.38;0.60;;;8.60;99.90;;;;;;5050367;28;20025;-86
2021/12/17 11:44:19;;;;;;;2.03;0.40;;;8.60;99.90;;;;;;5050722;28;20033;-85
2021/12/17 11:47:03;;;;;;;1.40;0.32;;;8.50;99.90;;;;;;5050395;28;20033;-84
2021/12/17 11:49:34;;;;;;;1.33;0.40;;;8.50;99.90;;;;;;5050322;28;20480;-86
2021/12/17 11:52:00;;;;;;;1.55;0.40;;;8.60;99.90;;;;;;5050347;28;20029;-86
2021/12/17 11:54:32;;;;;;;1.33;0.30;;;8.60;99.90;;;;;;5050570;28;20109;-86
2021/12/17 11:57:07;;;;;;;1.70;0.40;;;8.70;99.90;;;;;;5050247;28;20477;-86
2021/12/17 11:59:37;;;;;;;2.30;0.45;;;8.60;99.90;;;;;;5050299;28;20036;-85
2021/12/17 12:02:19;;;;;;;2.00;0.60;;;8.70;99.90;;;;;;5050371;28;20033;-86
2021/12/17 12:04:57;;;;;;;1.48;0.40;;;8.80;99.90;;;;;;5050311;28;20057;-86
2021/12/17 12:07:26;;;;;;;2.13;0.60;;;8.80;99.90;;;;;;5049235;28;20162;-86
2021/12/17 12:10:05;;;;;;;1.52;0.50;;;8.70;99.90;;;;;;5068281;28;20047;-85
2021/12/17 12:12:31;;;;;;;4.18;0.70;;;8.80;99.90;;;;;;5068145;28;20063;-85
2021/12/17 12:15:19;;;;;;;2.88;0.80;;;8.80;99.90;;;;;;5066814;28;20460;-85
2021/12/17 12:17:57;;;;;;;3.40;1.10;;;8.80;99.90;;;;;;5066436;28;20037;-86
2021/12/17 12:20:49;;;;;;;2.58;0.70;;;8.90;99.90;;;;;;5049967;28;20090;-86
2021/12/17 12:23:22;;;;;;;2.35;0.77;;;9.00;99.90;;;;;;5066677;28;20029;-86
2021/12/17 12:26:14;;;;;;;3.63;0.88;;;9.00;99.90;;;;;;5049597;28;20029;-86
2021/12/17 12:28:49;;;;;;;2.40;0.75;;;8.90;99.90;;;;;;5044017;28;20068;-85
2021/12/17 12:31:24;;;;;;;2.97;0.77;;;9.00;99.90;;;;;;5082910;28;20155;-85
2021/12/17 12:34:03;;;;;;;2.45;0.80;;;8.90;99.90;;;;;;5049661;28;20059;-85
2021/12/17 12:36:50;;;;;;;2.28;0.95;;;9.10;99.90;;;;;;5065856;28;20050;-86
2021/12/17 12:39:22;;;;;;;2.50;0.80;;;9.00;99.90;;;;;;5040153;28;20037;-88
2021/12/17 12:42:06;;;;;;;2.80;1.00;;;9.10;99.90;;;;;;5030143;28;20034;-87
2021/12/17 12:44:44;;;;;;;3.20;0.73;;;9.00;99.90;;;;;;5034256;28;20025;-86
2021/12/17 12:47:09;;;;;;;3.00;0.80;;;9.00;99.90;;;;;;5029541;28;20044;-85
2021/12/17 12:49:51;;;;;;;2.40;1.25;;;9.00;99.90;;;;;;5046276;28;20187;-86
2021/12/17 12:52:33;;;;;;;2.35;1.00;;;9.10;99.90;;;;;;5023187;28;20032;-85
2021/12/17 12:55:21;;;;;;;3.80;1.10;;;9.10;99.90;;;;;;5049156;28;20093;-84
2021/12/17 12:57:49;;;;;;;3.05;1.00;;;9.10;99.90;;;;;;5059151;28;20434;-86
2021/12/17 13:00:24;;;;;;;2.65;1.10;;;9.10;99.90;;;;;;5027608;28;20021;-87
2021/12/17 13:03:08;;;;;;;2.03;0.73;;;9.10;99.90;;;;;;5024560;28;20025;-87
2021/12/17 13:05:35;;;;;;;2.63;1.00;;;9.20;99.90;;;;;;5047431;28;20049;-87
2021/12/17 13:08:04;;;;;;;3.45;0.82;;;9.10;99.90;;;;;;5031106;28;20508;-87
2021/12/17 13:10:37;;;;;;;2.90;1.35;;;9.10;99.90;;;;;;5026419;28;20041;-86
2021/12/17 13:13:15;;;;;;;2.67;1.00;;;9.10;99.90;;;;;;5046357;28;20116;-87
2021/12/17 13:16:05;;;;;;;2.72;1.05;;;9.10;99.90;;;;;;5049168;28;20064;-88
2021/12/17 13:26:38;;;;;;;3.60;1.00;;;9.10;99.90;;;;;;5045577;28;20273;-88
2021/12/17 13:29:14;;;;;;;2.55;1.17;;;9.00;99.90;;;;;;5030699;28;20100;-88
2021/12/17 13:31:44;;;;;;;2.00;0.70;;;9.00;99.90;;;;;;5026811;28;20056;-86
2021/12/17 13:34:36;;;;;;;1.85;0.80;;;9.00;99.90;;;;;;5029693;28;20069;-86
2021/12/17 13:37:11;;;;;;;3.35;1.58;;;9.00;99.90;;;;;;5039623;28;20040;-86
2021/12/17 13:39:48;;;;;;;2.30;1.17;;;9.00;99.90;;;;;;5032207;28;20029;-88
2021/12/17 13:42:20;;;;;;;3.35;1.60;;;8.90;99.90;;;;;;5026930;28;20044;-87
2021/12/17 13:44:55;;;;;;;3.00;1.40;;;8.90;99.90;;;;;;5030810;28;20033;-88
2021/12/17 13:47:27;;;;;;;2.65;1.13;;;9.00;99.90;;;;;;5032857;28;20041;-89
2021/12/17 13:50:18;;;;;;;2.10;0.85;;;9.00;99.90;;;;;;5047155;28;20033;-87
2021/12/17 13:52:48;;;;;;;2.88;1.10;;;9.00;99.90;;;;;;5060831;28;20021;-87
2021/12/17 13:55:36;;;;;;;2.70;1.00;;;8.90;99.90;;;;;;5031010;28;20036;-89
2021/12/17 13:58:10;;;;;;;3.28;1.40;;;9.00;99.90;;;;;;5047892;28;20078;-87
2021/12/17 14:00:42;;;;;;;2.72;1.30;;;9.00;99.90;;;;;;5032120;28;20037;-85
2021/12/17 14:03:11;;;;;;;2.17;1.13;;;9.00;99.90;;;;;;5029237;28;20035;-85
2021/12/17 14:05:41;;;;;;;3.22;1.15;;;9.00;99.90;;;;;;5030078;28;20061;-87
2021/12/17 14:08:13;;;;;;;2.55;1.08;;;9.00;99.90;;;;;;5030056;28;20124;-87
2021/12/17 14:10:40;;;;;;;4.13;1.45;;;9.00;99.90;;;;;;5046454;28;20044;-87
2021/12/17 14:13:15;;;;;;;2.75;1.63;;;9.00;99.90;;;;;;5030277;28;20067;-86
2021/12/17 14:15:43;;;;;;;2.78;1.42;;;8.90;99.90;;;;;;5038178;28;20049;-85
2021/12/17 14:18:10;;;;;;;4.07;1.20;;;8.90;99.90;;;;;;5029969;28;20041;-86
2021/12/17 14:20:54;;;;;;;3.40;1.50;;;8.90;99.90;;;;;;5030326;28;20033;-87
2021/12/17 14:23:23;;;;;;;2.97;1.38;;;8.90;99.90;;;;;;5043513;28;20036;-87
2021/12/17 14:25:56;;;;;;;3.17;1.70;;;8.90;99.90;;;;;;5027191;28;20055;-87
2021/12/17 14:28:42;;;;;;;3.22;1.33;;;8.90;99.90;;;;;;5043598;28;20024;-86
2021/12/17 14:31:15;;;;;;;2.65;1.30;;;9.00;99.90;;;;;;4985675;28;20518;-87
2021/12/17 14:33:49;;;;;;;2.63;1.38;;;8.90;99.90;;;;;;5003035;28;20070;-87
2021/12/17 14:36:39;;;;;;;3.75;1.27;;;8.90;99.90;;;;;;4983195;28;20038;-87
2021/12/17 14:39:17;;;;;;;4.53;1.20;;;8.80;99.90;;;;;;4984728;28;20137;-87
2021/12/17 14:41:59;;;;;;;3.95;1.95;;;8.90;99.90;;;;;;4995681;28;20287;-86
2021/12/17 14:47:00;;;;;;;4.32;2.00;;;8.80;99.90;;;;;;4995896;28;20031;-86
2021/12/17 15:02:56;;;;;;;3.10;1.80;;;8.70;99.90;;;;;;5004441;28;20050;-86
2021/12/17 15:05:27;;;;;;;4.97;2.10;;;8.70;99.90;;;;;;5004216;28;20027;-87
2021/12/17 15:07:54;;;;;;;3.28;1.75;;;8.70;99.90;;;;;;5025616;28;20037;-86
2021/12/17 15:10:22;;;;;;;5.30;2.20;;;8.70;99.90;;;;;;5031541;28;20021;-87
2021/12/17 15:12:50;;;;;;;3.60;1.75;;;8.70;99.90;;;;;;5047899;28;20056;-86
2021/12/17 15:15:21;;;;;;;4.05;2.00;;;8.70;99.90;;;;;;5031122;28;20235;-87
2021/12/17 15:17:49;;;;;;;4.47;1.80;;;8.70;99.90;;;;;;5028395;28;20045;-87
2021/12/17 15:20:16;;;;;;;2.75;1.45;;;8.70;99.90;;;;;;5031449;28;20025;-87
2021/12/17 15:22:42;;;;;;;3.60;1.40;;;8.70;99.90;;;;;;5031473;28;20029;-86
2021/12/17 15:25:10;;;;;;;4.97;1.83;;;8.60;99.90;;;;;;5031300;28;20121;-87
2021/12/17 15:27:37;;;;;;;2.70;1.40;;;8.60;99.90;;;;;;5031011;28;20029;-86
2021/12/17 15:30:13;;;;;;;3.72;2.28;;;8.60;99.90;;;;;;5030960;28;20033;-86
2021/12/17 15:32:40;;;;;;;5.18;2.20;;;8.60;99.90;;;;;;5021606;28;20046;-86
2021/12/17 15:35:06;;;;;;;4.93;2.50;;;8.60;99.90;;;;;;5043814;28;20041;-86
2021/12/17 15:37:32;;;;;;;4.80;2.67;;;8.60;99.90;;;;;;5044414;28;20068;-86
2021/12/17 15:39:58;;;;;;;5.75;3.20;;;8.60;99.90;;;;;;5047610;28;20025;-86
2021/12/17 15:42:23;;;;;;;5.22;2.60;;;8.60;99.90;;;;;;5032105;28;20033;-87
2021/12/17 15:44:49;;;;;;;4.20;2.38;;;8.50;99.90;;;;;;5051385;28;20033;-86
2021/12/17 15:47:15;;;;;;;7.03;2.67;;;8.50;99.90;;;;;;5030256;28;20037;-87
2021/12/17 15:49:40;;;;;;;3.60;1.88;;;8.60;99.90;;;;;;5034657;28;20111;-87
2021/12/17 15:52:07;;;;;;;4.82;2.75;;;8.60;99.90;;;;;;5034538;28;20047;-87
2021/12/17 15:54:34;;;;;;;4.22;2.35;;;8.60;99.90;;;;;;5034471;28;20036;-87
2021/12/17 15:57:00;;;;;;;6.40;2.00;;;8.60;99.90;;;;;;5050818;28;20101;-87
2021/12/17 15:59:26;;;;;;;4.50;2.08;;;8.60;99.90;;;;;;5050904;28;20068;-87
2021/12/17 16:01:52;;;;;;;8.00;2.55;;;8.60;99.90;;;;;;5034101;28;20037;-87
2021/12/17 16:04:17;;;;;;;3.25;1.88;;;8.60;99.90;;;;;;5068944;28;20033;-86
2021/12/17 16:06:43;;;;;;;5.18;2.80;;;8.50;99.90;;;;;;5034021;28;20055;-87
2021/12/17 16:09:25;;;;;;;4.22;2.58;;;8.50;99.90;;;;;;5068449;28;20492;-87